Time;durP1;ratioP1;P1;durP2;ratioP2;P2;SDS_P1;SDS_P2;PMS_P1;PMS_P2;Temp;Humidity;BMP_temperature;BMP_pressure;BME280_temperature;BME280_humidity;BME280_pressure;Samples;Min_cycle;Max_cycle;Signal;HPM_P1;HPM_P2
2022/07/07 00:01:23;;;;;;;9.18;5.63;;;16.80;99.90;;;;;;5009908;28;20053;-45
2022/07/07 00:03:50;;;;;;;7.30;4.93;;;16.90;99.90;;;;;;5010142;28;20452;-44
2022/07/07 00:06:19;;;;;;;11.52;5.35;;;16.80;99.90;;;;;;5011564;28;20492;-45
2022/07/07 00:08:47;;;;;;;8.27;4.18;;;16.90;99.90;;;;;;5010947;28;20041;-45
2022/07/07 00:11:16;;;;;;;10.52;4.32;;;16.90;99.90;;;;;;5016428;28;20448;-44
2022/07/07 00:13:42;;;;;;;6.82;3.28;;;16.80;99.90;;;;;;4992661;28;20136;-44
2022/07/07 00:16:08;;;;;;;7.13;3.58;;;16.80;99.90;;;;;;5011197;28;20066;-46
2022/07/07 00:18:34;;;;;;;6.20;3.30;;;16.80;99.90;;;;;;5011093;28;20045;-47
2022/07/07 00:21:00;;;;;;;4.68;3.10;;;16.80;99.90;;;;;;5014164;28;20469;-45
2022/07/07 00:23:26;;;;;;;7.43;3.38;;;16.80;99.90;;;;;;4989255;28;20049;-46
2022/07/07 00:25:53;;;;;;;7.20;3.45;;;16.80;99.90;;;;;;5010941;28;20345;-46
2022/07/07 00:28:19;;;;;;;10.07;3.45;;;16.80;99.90;;;;;;5011309;28;20522;-44
2022/07/07 00:30:45;;;;;;;9.27;3.22;;;16.80;99.90;;;;;;5020338;28;20049;-45
2022/07/07 00:33:11;;;;;;;10.82;4.00;;;16.80;99.90;;;;;;5009982;28;20034;-44
2022/07/07 00:35:36;;;;;;;6.53;3.00;;;16.80;99.90;;;;;;5011904;28;20402;-46
2022/07/07 00:38:02;;;;;;;11.15;4.63;;;16.80;99.90;;;;;;5011669;28;20483;-47
2022/07/07 00:40:28;;;;;;;7.90;3.20;;;16.80;99.90;;;;;;5010715;28;20037;-46
2022/07/07 00:42:54;;;;;;;7.90;4.03;;;16.80;99.90;;;;;;5016125;28;20080;-45
2022/07/07 00:45:20;;;;;;;6.18;3.13;;;16.70;99.90;;;;;;5012858;28;20467;-47
2022/07/07 00:47:46;;;;;;;7.70;3.40;;;16.70;99.90;;;;;;4993405;28;20053;-47
2022/07/07 00:50:12;;;;;;;10.77;4.00;;;16.60;99.90;;;;;;4985872;28;20045;-46
2022/07/07 00:52:37;;;;;;;5.32;2.92;;;16.50;99.90;;;;;;5012083;28;20134;-44
2022/07/07 00:55:08;;;;;;;9.05;3.85;;;16.50;99.90;;;;;;5013146;28;20061;-45
2022/07/07 00:57:34;;;;;;;8.77;3.80;;;16.50;99.90;;;;;;5007895;28;20517;-47
2022/07/07 01:00:04;;;;;;;9.48;4.78;;;16.50;99.90;;;;;;5011578;28;20049;-48
2022/07/07 01:02:31;;;;;;;10.15;4.32;;;16.50;99.90;;;;;;5015903;28;20055;-48
2022/07/07 01:05:01;;;;;;;9.90;4.47;;;16.40;99.90;;;;;;4991253;28;21797;-48
2022/07/07 01:07:27;;;;;;;7.47;4.10;;;16.30;99.90;;;;;;5017727;28;20041;-46
2022/07/07 01:09:55;;;;;;;11.18;4.38;;;16.30;99.90;;;;;;5003986;28;20532;-45
2022/07/07 01:12:21;;;;;;;12.15;4.40;;;16.40;99.90;;;;;;5013488;28;20491;-44
2022/07/07 01:14:47;;;;;;;10.23;4.22;;;16.30;99.90;;;;;;5007270;28;20477;-46
2022/07/07 01:17:13;;;;;;;10.25;4.22;;;16.30;99.90;;;;;;5016459;28;20056;-45
2022/07/07 01:19:38;;;;;;;10.13;4.78;;;16.30;99.90;;;;;;5014156;28;20084;-44
2022/07/07 01:22:10;;;;;;;9.25;5.40;;;16.20;99.90;;;;;;5012005;28;20060;-45
2022/07/07 01:24:36;;;;;;;10.38;5.75;;;16.20;99.90;;;;;;5009501;28;20054;-46
2022/07/07 01:27:16;;;;;;;8.70;5.07;;;16.20;99.90;;;;;;5010551;28;20517;-45
2022/07/07 01:29:49;;;;;;;9.95;5.50;;;16.20;99.90;;;;;;5016247;28;20567;-47
2022/07/07 01:32:15;;;;;;;;;;;16.20;99.90;;;;;;5005126;28;20060;-46
2022/07/07 01:34:44;;;;;;;7.88;5.22;;;16.20;99.90;;;;;;5009073;28;20329;-45
2022/07/07 01:37:10;;;;;;;7.28;4.18;;;16.20;99.90;;;;;;5008461;28;20053;-45
2022/07/07 01:39:38;;;;;;;9.90;5.28;;;16.20;99.90;;;;;;5007691;28;20033;-45
2022/07/07 01:42:04;;;;;;;8.98;4.72;;;16.20;99.90;;;;;;5012153;28;20061;-45
2022/07/07 01:44:32;;;;;;;12.88;5.13;;;16.20;99.90;;;;;;4990066;28;20046;-45
2022/07/07 01:46:57;;;;;;;10.68;5.22;;;16.20;99.90;;;;;;4990080;28;20055;-45
2022/07/07 01:49:24;;;;;;;13.18;5.00;;;16.20;99.90;;;;;;5008060;28;20057;-45
2022/07/07 01:51:50;;;;;;;10.55;4.75;;;16.10;99.90;;;;;;5010939;28;20056;-46
2022/07/07 01:54:15;;;;;;;9.50;4.65;;;16.10;99.90;;;;;;5015172;28;20049;-45
2022/07/07 01:56:41;;;;;;;12.98;4.90;;;16.20;99.90;;;;;;5015389;28;20064;-44
2022/07/07 01:59:08;;;;;;;13.85;5.10;;;16.10;99.90;;;;;;5009215;28;20492;-49
2022/07/07 02:01:35;;;;;;;13.02;4.72;;;16.20;99.90;;;;;;5008100;28;20042;-44
2022/07/07 02:04:00;;;;;;;12.88;4.70;;;16.20;99.90;;;;;;4969910;28;20062;-46
2022/07/07 02:06:26;;;;;;;10.60;4.32;;;16.20;99.90;;;;;;4995967;28;20056;-45
2022/07/07 02:08:52;;;;;;;14.27;4.25;;;16.20;99.90;;;;;;5017607;28;20182;-45
2022/07/07 02:11:18;;;;;;;18.13;5.32;;;16.20;99.90;;;;;;4987294;28;20050;-47
2022/07/07 02:13:47;;;;;;;16.67;4.75;;;16.30;99.90;;;;;;5010212;28;20139;-46
2022/07/07 02:16:14;;;;;;;17.15;4.47;;;16.20;99.90;;;;;;5016704;28;20554;-47
2022/07/07 02:18:46;;;;;;;16.80;4.40;;;16.20;99.90;;;;;;5008644;28;20081;-45
2022/07/07 02:21:13;;;;;;;13.57;4.47;;;16.20;99.90;;;;;;5006292;28;20050;-46
2022/07/07 02:23:42;;;;;;;9.35;2.95;;;16.30;99.90;;;;;;4984901;28;20053;-44
2022/07/07 02:26:08;;;;;;;8.02;3.03;;;16.20;99.90;;;;;;5010593;28;20060;-45
2022/07/07 02:28:33;;;;;;;11.05;3.28;;;16.20;99.90;;;;;;5014727;28;20045;-45
2022/07/07 02:30:59;;;;;;;9.35;3.10;;;16.20;99.90;;;;;;5007765;28;20056;-46
2022/07/07 02:33:26;;;;;;;10.13;3.30;;;16.10;99.90;;;;;;5004698;28;20404;-44
2022/07/07 02:35:53;;;;;;;10.77;3.28;;;16.20;99.90;;;;;;4997895;28;20058;-45
2022/07/07 02:38:20;;;;;;;10.65;2.42;;;16.10;99.90;;;;;;5007249;28;20445;-45
2022/07/07 02:40:46;;;;;;;9.48;3.20;;;16.10;99.90;;;;;;5011236;28;20460;-45
2022/07/07 02:43:15;;;;;;;11.57;2.97;;;16.00;99.90;;;;;;4991783;28;20053;-46
2022/07/07 02:45:41;;;;;;;12.57;2.95;;;16.10;99.90;;;;;;5007865;28;20053;-45
2022/07/07 02:48:11;;;;;;;11.55;3.58;;;16.10;99.90;;;;;;5015170;28;20064;-48
2022/07/07 02:50:38;;;;;;;9.80;3.58;;;16.10;99.90;;;;;;4990266;28;20463;-45
2022/07/07 02:53:05;;;;;;;10.77;3.55;;;16.00;99.90;;;;;;5014528;28;20083;-45
2022/07/07 02:55:31;;;;;;;15.43;3.70;;;16.00;99.90;;;;;;5015863;28;20409;-44
2022/07/07 02:58:01;;;;;;;18.90;3.88;;;16.00;99.90;;;;;;5005506;28;20116;-47
2022/07/07 03:00:27;;;;;;;10.95;3.58;;;16.00;99.90;;;;;;5009690;28;20053;-45
2022/07/07 03:02:54;;;;;;;13.05;3.55;;;16.00;99.90;;;;;;5011676;28;20056;-46
2022/07/07 03:05:22;;;;;;;16.30;3.42;;;16.00;99.90;;;;;;5009775;28;20134;-44
2022/07/07 03:07:49;;;;;;;16.23;3.78;;;16.00;99.90;;;;;;5018724;28;20049;-45
2022/07/07 03:10:15;;;;;;;14.95;4.32;;;16.00;99.90;;;;;;5010173;28;20057;-45
2022/07/07 03:12:41;;;;;;;10.80;3.45;;;16.00;99.90;;;;;;5006584;28;20158;-46
2022/07/07 03:15:08;;;;;;;11.40;3.20;;;16.00;99.90;;;;;;5005508;28;20052;-46
2022/07/07 03:17:34;;;;;;;15.85;3.40;;;16.00;99.90;;;;;;5007609;28;20412;-44
2022/07/07 03:19:59;;;;;;;16.65;3.45;;;16.00;99.90;;;;;;5008061;28;20041;-47
2022/07/07 03:22:25;;;;;;;11.23;2.80;;;16.00;99.90;;;;;;5005303;28;20042;-47
2022/07/07 03:24:51;;;;;;;12.57;2.55;;;16.00;99.90;;;;;;4991147;28;20050;-46
2022/07/07 03:27:17;;;;;;;8.88;2.47;;;16.00;99.90;;;;;;5006457;28;20073;-45
2022/07/07 03:29:42;;;;;;;13.35;2.60;;;15.90;99.90;;;;;;5017920;28;20088;-47
2022/07/07 03:32:09;;;;;;;12.45;2.78;;;15.90;99.90;;;;;;5002493;28;20473;-45
2022/07/07 03:34:38;;;;;;;7.43;1.98;;;15.90;99.90;;;;;;5017315;28;20133;-49
2022/07/07 03:37:05;;;;;;;13.20;2.42;;;15.90;99.90;;;;;;5007668;28;20064;-46
2022/07/07 03:39:30;;;;;;;7.88;3.05;;;15.80;99.90;;;;;;5013445;28;20563;-45
2022/07/07 03:41:56;;;;;;;10.15;2.25;;;15.80;99.90;;;;;;5005783;28;20092;-44
2022/07/07 03:44:22;;;;;;;8.45;2.50;;;15.70;99.90;;;;;;5007036;28;20041;-45
2022/07/07 03:46:47;;;;;;;11.95;2.10;;;15.70;99.90;;;;;;4997467;28;20151;-45
2022/07/07 03:49:13;;;;;;;8.82;2.35;;;15.70;99.90;;;;;;5002992;28;20092;-46
2022/07/07 03:51:39;;;;;;;7.18;1.80;;;15.60;99.90;;;;;;5012400;28;20056;-44
2022/07/07 03:54:04;;;;;;;9.90;1.80;;;15.60;99.90;;;;;;5015962;28;20048;-44
2022/07/07 03:56:30;;;;;;;8.00;1.52;;;15.60;99.90;;;;;;5012664;28;20133;-44
2022/07/07 03:58:56;;;;;;;12.25;2.88;;;15.60;99.90;;;;;;5006529;28;20136;-45
2022/07/07 04:01:22;;;;;;;6.90;2.00;;;15.50;99.90;;;;;;5006238;28;20045;-45
2022/07/07 04:03:51;;;;;;;9.07;2.33;;;15.50;99.90;;;;;;5012380;28;20054;-46
2022/07/07 04:06:16;;;;;;;11.43;2.33;;;15.50;99.90;;;;;;5010718;28;20049;-45
2022/07/07 04:08:45;;;;;;;11.32;1.65;;;15.50;99.90;;;;;;4993104;28;20049;-45
2022/07/07 04:11:11;;;;;;;8.32;1.90;;;15.50;99.90;;;;;;5008042;28;20046;-44
2022/07/07 04:13:36;;;;;;;9.00;2.05;;;15.50;99.90;;;;;;5005593;28;20497;-45
2022/07/07 04:16:02;;;;;;;13.30;2.40;;;15.50;99.90;;;;;;5010227;28;20706;-46
2022/07/07 04:18:28;;;;;;;12.18;2.45;;;15.40;99.90;;;;;;5006564;28;20048;-44
2022/07/07 04:20:54;;;;;;;10.90;1.92;;;15.40;99.90;;;;;;5014426;28;20081;-45
2022/07/07 04:23:19;;;;;;;7.85;1.80;;;15.30;99.90;;;;;;5009672;28;20049;-44
2022/07/07 04:25:45;;;;;;;9.90;2.25;;;15.30;99.90;;;;;;5010540;28;20054;-45
2022/07/07 04:28:11;;;;;;;9.48;2.20;;;15.30;99.90;;;;;;4990206;28;20049;-45
2022/07/07 04:30:37;;;;;;;7.30;1.88;;;15.30;99.90;;;;;;5011058;28;20129;-46
2022/07/07 04:33:03;;;;;;;7.28;1.48;;;15.40;99.90;;;;;;5000494;28;20554;-47
2022/07/07 04:35:29;;;;;;;6.72;1.58;;;15.30;99.90;;;;;;4980705;28;20053;-47
2022/07/07 04:37:54;;;;;;;6.25;1.55;;;15.40;99.90;;;;;;5009494;28;20388;-46
2022/07/07 04:40:20;;;;;;;9.02;1.50;;;15.40;99.90;;;;;;5014092;28;20046;-46
2022/07/07 04:42:46;;;;;;;8.18;1.83;;;15.50;99.90;;;;;;5014045;28;20049;-47
2022/07/07 04:45:11;;;;;;;9.43;1.50;;;15.50;99.90;;;;;;5010776;28;20548;-47
2022/07/07 04:47:43;;;;;;;6.15;1.58;;;15.60;99.90;;;;;;5005030;28;20503;-45
2022/07/07 04:50:13;;;;;;;7.75;1.55;;;15.70;99.90;;;;;;5013150;28;20042;-47
2022/07/07 04:52:40;;;;;;;7.05;1.88;;;15.80;99.90;;;;;;5013016;28;20060;-44
2022/07/07 04:55:07;;;;;;;10.48;1.95;;;16.00;99.90;;;;;;5014219;28;20432;-44
2022/07/07 04:57:37;;;;;;;10.75;3.83;;;16.00;99.90;;;;;;5008672;28;20179;-44
2022/07/07 05:00:04;;;;;;;10.98;3.50;;;16.10;99.90;;;;;;5013539;28;20045;-46
2022/07/07 05:02:29;;;;;;;13.32;2.78;;;16.70;99.90;;;;;;5012393;28;20033;-45
2022/07/07 05:04:56;;;;;;;12.55;2.80;;;18.20;99.90;;;;;;5009324;28;20056;-45
2022/07/07 05:07:22;;;;;;;9.55;2.55;;;19.20;99.90;;;;;;5006394;28;20057;-44
2022/07/07 05:09:48;;;;;;;14.90;3.78;;;19.10;99.90;;;;;;5017554;28;20110;-44
2022/07/07 05:12:14;;;;;;;15.57;3.28;;;18.60;99.90;;;;;;5012199;28;20053;-44
2022/07/07 05:14:40;;;;;;;12.18;2.80;;;18.20;99.90;;;;;;5010215;28;20132;-45
2022/07/07 05:17:05;;;;;;;11.07;3.83;;;17.80;99.90;;;;;;5011222;28;20728;-46
2022/07/07 05:19:31;;;;;;;14.48;3.40;;;17.40;99.90;;;;;;5016383;28;20487;-45
2022/07/07 05:21:57;;;;;;;17.73;3.42;;;17.20;99.90;;;;;;5009759;28;20497;-45
2022/07/07 05:24:23;;;;;;;17.40;3.90;;;16.90;99.90;;;;;;5013995;28;20595;-45
2022/07/07 05:26:48;;;;;;;15.02;3.28;;;16.90;99.90;;;;;;5013197;28;20052;-44
2022/07/07 05:29:14;;;;;;;10.10;2.85;;;16.80;99.90;;;;;;5009162;28;20046;-45
2022/07/07 05:31:40;;;;;;;11.55;2.72;;;16.80;99.90;;;;;;5012645;28;20050;-45
2022/07/07 05:34:06;;;;;;;14.88;3.58;;;16.80;99.90;;;;;;5015573;28;20049;-47
2022/07/07 05:36:32;;;;;;;9.18;2.50;;;17.10;99.90;;;;;;5016501;28;20146;-47
2022/07/07 05:38:59;;;;;;;13.48;2.78;;;17.10;99.90;;;;;;5013488;28;20049;-45
2022/07/07 05:41:25;;;;;;;10.07;2.22;;;17.20;99.90;;;;;;4995581;28;20616;-44
2022/07/07 05:43:50;;;;;;;8.55;2.13;;;17.10;99.90;;;;;;5004519;28;20049;-48
2022/07/07 05:46:16;;;;;;;9.77;3.13;;;17.30;99.90;;;;;;5014307;28;20050;-45
2022/07/07 05:48:42;;;;;;;9.85;2.42;;;17.30;99.90;;;;;;5009523;28;20125;-47
2022/07/07 05:51:07;;;;;;;10.73;3.10;;;17.40;99.90;;;;;;5010388;28;20388;-46
2022/07/07 05:53:33;;;;;;;12.00;2.90;;;17.40;99.90;;;;;;5021070;28;20052;-45
2022/07/07 05:55:59;;;;;;;11.20;2.08;;;17.40;99.90;;;;;;5003736;28;20124;-47
2022/07/07 05:58:25;;;;;;;6.00;1.98;;;17.40;99.90;;;;;;5014411;28;20061;-47
2022/07/07 06:00:51;;;;;;;7.28;1.63;;;17.50;99.90;;;;;;5014702;28;20792;-45
2022/07/07 06:03:16;;;;;;;6.00;1.83;;;17.80;99.90;;;;;;5017576;28;20053;-49
2022/07/07 06:05:43;;;;;;;7.70;1.80;;;18.50;99.90;;;;;;5008004;28;20064;-47
2022/07/07 06:08:09;;;;;;;7.72;2.05;;;19.70;99.90;;;;;;5010447;28;20056;-47
2022/07/07 06:10:35;;;;;;;5.78;2.05;;;22.00;99.90;;;;;;5002664;28;20563;-45
2022/07/07 06:13:01;;;;;;;7.35;1.90;;;22.40;99.90;;;;;;5002582;28;20125;-45
2022/07/07 06:15:30;;;;;;;12.23;2.22;;;22.00;99.90;;;;;;5008169;28;20127;-45
2022/07/07 06:17:56;;;;;;;8.63;2.08;;;21.40;99.90;;;;;;5013910;28;20139;-44
2022/07/07 06:20:22;;;;;;;7.32;2.50;;;20.70;99.90;;;;;;5011925;28;20125;-46
2022/07/07 06:22:47;;;;;;;9.07;2.30;;;20.30;99.90;;;;;;5010412;28;20053;-45
2022/07/07 06:25:13;;;;;;;7.22;2.00;;;19.80;99.90;;;;;;5005679;28;20061;-45
2022/07/07 06:27:39;;;;;;;8.60;2.28;;;19.50;99.90;;;;;;5003878;28;20057;-46
2022/07/07 06:30:06;;;;;;;8.73;1.98;;;19.80;99.90;;;;;;5011055;28;20445;-44
2022/07/07 06:32:32;;;;;;;10.45;1.73;;;20.00;99.90;;;;;;5003893;28;20082;-45
2022/07/07 06:34:58;;;;;;;5.55;1.65;;;20.30;99.90;;;;;;5002136;28;20152;-45
2022/07/07 06:37:24;;;;;;;4.78;1.60;;;20.80;99.90;;;;;;5009623;28;20062;-46
2022/07/07 06:39:50;;;;;;;4.53;1.15;;;20.90;99.90;;;;;;5010686;28;20048;-45
2022/07/07 06:42:16;;;;;;;5.68;1.73;;;20.30;99.90;;;;;;5000950;28;20416;-46
2022/07/07 06:44:42;;;;;;;7.13;1.25;;;19.90;99.90;;;;;;5002890;28;20085;-45
2022/07/07 06:47:11;;;;;;;5.70;1.63;;;20.20;99.90;;;;;;5006654;28;20057;-46
2022/07/07 06:49:37;;;;;;;4.03;1.20;;;21.70;99.90;;;;;;5014514;28;20050;-47
2022/07/07 06:52:03;;;;;;;5.10;1.42;;;22.20;99.90;;;;;;5006616;28;20046;-46
2022/07/07 06:54:29;;;;;;;6.45;1.88;;;21.70;99.90;;;;;;5006113;28;20444;-45
2022/07/07 06:56:54;;;;;;;7.32;1.30;;;21.10;99.90;;;;;;5000858;28;20084;-48
2022/07/07 06:59:21;;;;;;;6.32;1.63;;;20.50;99.90;;;;;;5001915;28;20416;-46
2022/07/07 07:01:46;;;;;;;3.92;1.70;;;20.00;99.90;;;;;;5008070;28;20432;-45
2022/07/07 07:04:13;;;;;;;3.28;1.30;;;19.40;99.90;;;;;;4987836;28;20378;-45
2022/07/07 07:06:42;;;;;;;4.00;1.35;;;19.00;99.90;;;;;;4999889;28;20076;-46
2022/07/07 07:09:09;;;;;;;4.45;1.35;;;19.00;99.90;;;;;;5009564;28;20061;-45
2022/07/07 07:11:35;;;;;;;4.72;1.27;;;19.10;99.90;;;;;;5011885;28;20054;-44
2022/07/07 07:14:04;;;;;;;4.95;1.60;;;19.40;99.90;;;;;;5014823;28;20514;-45
2022/07/07 07:16:30;;;;;;;5.60;1.48;;;20.50;99.90;;;;;;5015107;28;20399;-47
2022/07/07 07:18:56;;;;;;;6.13;1.58;;;21.30;99.90;;;;;;5011520;28;20049;-45
2022/07/07 07:21:22;;;;;;;6.38;1.70;;;21.30;99.90;;;;;;5003441;28;20128;-50
2022/07/07 07:23:48;;;;;;;5.40;1.92;;;20.80;99.90;;;;;;5011589;28;20050;-48
2022/07/07 07:26:14;;;;;;;5.78;2.03;;;20.50;99.90;;;;;;5006365;28;20053;-47
2022/07/07 07:28:39;;;;;;;4.82;1.65;;;20.30;99.90;;;;;;5006899;28;20136;-46
2022/07/07 07:31:06;;;;;;;5.80;1.77;;;20.30;99.90;;;;;;5014611;28;20045;-47
2022/07/07 07:33:35;;;;;;;6.03;1.83;;;20.30;99.90;;;;;;5009055;28;20407;-44
2022/07/07 07:36:02;;;;;;;8.52;2.08;;;20.00;99.90;;;;;;5008279;28;20710;-45
2022/07/07 07:38:28;;;;;;;8.23;2.28;;;19.60;99.90;;;;;;5003109;28;20073;-47
2022/07/07 07:40:53;;;;;;;9.30;2.17;;;19.40;99.90;;;;;;5008019;28;20459;-46
2022/07/07 07:43:19;;;;;;;7.18;1.88;;;19.40;99.90;;;;;;5014228;28;20054;-45
2022/07/07 07:45:45;;;;;;;8.05;2.28;;;19.50;99.90;;;;;;5005164;28;20076;-46
2022/07/07 07:48:11;;;;;;;7.65;2.88;;;19.50;99.90;;;;;;5009299;28;20112;-45
2022/07/07 07:50:37;;;;;;;7.53;1.92;;;19.50;99.90;;;;;;5003975;28;20055;-46
2022/07/07 07:53:04;;;;;;;6.47;2.28;;;19.40;99.90;;;;;;4995926;28;20518;-46
2022/07/07 07:55:30;;;;;;;4.60;1.80;;;18.60;99.90;;;;;;5002257;28;20481;-46
2022/07/07 07:57:56;;;;;;;3.55;1.50;;;18.20;99.90;;;;;;4984372;28;20050;-45
2022/07/07 08:00:23;;;;;;;6.30;2.03;;;18.00;99.90;;;;;;5004677;28;20053;-45
2022/07/07 08:02:49;;;;;;;5.32;1.42;;;18.10;99.90;;;;;;5002042;28;20045;-44
2022/07/07 08:05:19;;;;;;;7.13;1.88;;;18.10;99.90;;;;;;5004073;28;20054;-47
2022/07/07 08:07:45;;;;;;;6.13;1.95;;;18.50;99.90;;;;;;5012131;28;20064;-45
2022/07/07 08:10:13;;;;;;;5.30;1.23;;;18.90;99.90;;;;;;5013226;28;20499;-46
2022/07/07 08:12:40;;;;;;;4.05;1.23;;;19.30;99.90;;;;;;5021920;28;20053;-45
2022/07/07 08:15:06;;;;;;;4.72;1.52;;;19.50;99.90;;;;;;5012597;28;20100;-45
2022/07/07 08:17:32;;;;;;;5.07;1.48;;;19.80;99.90;;;;;;4998401;28;20572;-47
2022/07/07 08:19:59;;;;;;;6.57;1.98;;;20.00;99.90;;;;;;4987366;28;20364;-44
2022/07/07 08:22:25;;;;;;;6.88;1.98;;;20.00;99.90;;;;;;5017256;28;20467;-43
2022/07/07 08:24:51;;;;;;;8.57;1.88;;;19.70;99.90;;;;;;4989094;28;20337;-45
2022/07/07 08:27:16;;;;;;;7.78;1.90;;;19.50;99.90;;;;;;5009238;28;20108;-47
2022/07/07 08:29:42;;;;;;;6.80;2.05;;;19.10;99.90;;;;;;5017626;28;20718;-45
2022/07/07 08:32:14;;;;;;;7.25;2.17;;;18.80;99.90;;;;;;5012290;28;20056;-46
2022/07/07 08:34:40;;;;;;;6.57;2.20;;;18.90;99.90;;;;;;5019487;28;20526;-45
2022/07/07 08:37:06;;;;;;;4.38;1.80;;;19.20;99.90;;;;;;5010079;28;20070;-45
2022/07/07 08:39:33;;;;;;;8.38;2.30;;;19.20;99.90;;;;;;5012450;28;20235;-45
2022/07/07 08:41:59;;;;;;;5.18;1.80;;;19.30;99.90;;;;;;5016520;28;20045;-49
2022/07/07 08:44:26;;;;;;;7.22;2.05;;;19.40;99.90;;;;;;5021837;28;20051;-44
2022/07/07 08:46:52;;;;;;;6.05;2.00;;;19.30;99.90;;;;;;5011041;28;20092;-45
2022/07/07 08:49:18;;;;;;;8.95;2.35;;;19.10;99.90;;;;;;5007007;28;20515;-47
2022/07/07 08:51:46;;;;;;;8.25;2.03;;;19.10;99.90;;;;;;5020931;28;20053;-45
2022/07/07 08:54:14;;;;;;;5.50;1.73;;;19.00;99.90;;;;;;5017776;28;20057;-45
2022/07/07 08:56:41;;;;;;;5.20;2.00;;;18.90;99.90;;;;;;4994200;28;20072;-47
2022/07/07 08:59:08;;;;;;;8.55;2.25;;;18.90;99.90;;;;;;5015462;28;20497;-45
2022/07/07 09:01:35;;;;;;;6.68;2.47;;;18.90;99.90;;;;;;5011543;28;20554;-45
2022/07/07 09:04:02;;;;;;;8.63;2.47;;;18.90;99.90;;;;;;5011054;28;20129;-47
2022/07/07 09:06:28;;;;;;;8.63;2.30;;;18.80;99.90;;;;;;5010493;28;20121;-44
2022/07/07 09:08:55;;;;;;;6.97;2.22;;;18.80;99.90;;;;;;5009151;28;20046;-45
2022/07/07 09:11:29;;;;;;;9.05;2.47;;;18.60;99.90;;;;;;5004526;28;20139;-45
2022/07/07 09:14:16;;;;;;;7.25;2.05;;;18.50;99.90;;;;;;5017709;28;20723;-44
2022/07/07 09:16:43;;;;;;;7.47;1.80;;;18.60;99.90;;;;;;5008895;28;20393;-44
2022/07/07 09:19:20;;;;;;;6.22;2.13;;;18.80;99.90;;;;;;4985674;28;20496;-49
2022/07/07 09:21:47;;;;;;;6.53;2.13;;;18.90;99.90;;;;;;5016052;28;20049;-45
2022/07/07 09:24:13;;;;;;;6.03;2.22;;;18.80;99.90;;;;;;5003556;28;20053;-45
2022/07/07 09:26:52;;;;;;;4.63;1.67;;;18.80;99.90;;;;;;4985763;28;20104;-44
2022/07/07 09:29:19;;;;;;;6.95;1.40;;;19.00;99.90;;;;;;5005038;28;20099;-46
2022/07/07 09:32:00;;;;;;;5.03;1.65;;;19.30;99.90;;;;;;5004903;28;20069;-48
2022/07/07 09:34:28;;;;;;;5.65;1.65;;;19.60;99.90;;;;;;5013562;28;20092;-47
2022/07/07 09:39:46;;;;;;;4.47;1.20;;;19.60;99.90;;;;;;5003703;28;20069;-45
2022/07/07 09:42:20;;;;;;;2.22;1.00;;;19.10;99.90;;;;;;4991561;28;20388;-44
2022/07/07 09:44:52;;;;;;;4.97;1.13;;;18.70;99.90;;;;;;4998335;28;20053;-43
2022/07/07 09:47:19;;;;;;;4.97;1.20;;;18.30;99.90;;;;;;5012811;28;20198;-43
2022/07/07 09:50:01;;;;;;;2.92;1.63;;;18.30;99.90;;;;;;4992374;28;20396;-46
2022/07/07 09:52:28;;;;;;;7.95;1.77;;;18.50;99.90;;;;;;5007753;28;20048;-44
2022/07/07 09:54:55;;;;;;;3.13;1.30;;;18.70;99.90;;;;;;5016258;28;20051;-45
2022/07/07 09:57:21;;;;;;;3.17;1.02;;;18.80;99.90;;;;;;5021950;28;20046;-44
2022/07/07 09:59:50;;;;;;;3.65;1.20;;;19.00;99.90;;;;;;5018435;28;20096;-45
2022/07/07 10:02:22;;;;;;;6.43;1.20;;;19.30;99.90;;;;;;5011183;28;20137;-45
2022/07/07 10:04:50;;;;;;;4.35;1.95;;;19.60;99.90;;;;;;5018070;28;20056;-45
2022/07/07 10:07:21;;;;;;;6.20;1.50;;;19.90;99.90;;;;;;5017261;28;20407;-45
2022/07/07 10:10:00;;;;;;;11.32;2.75;;;20.10;99.90;;;;;;4993720;28;20058;-45
2022/07/07 10:12:27;;;;;;;7.90;1.90;;;19.60;99.90;;;;;;5013731;28;20068;-46
2022/07/07 10:15:04;;;;;;;3.97;1.35;;;18.90;99.90;;;;;;5016886;28;20050;-46
2022/07/07 10:17:31;;;;;;;3.60;1.20;;;18.40;99.90;;;;;;5015003;28;20417;-44
2022/07/07 10:19:59;;;;;;;5.25;1.38;;;18.20;99.90;;;;;;5015287;28;20492;-43
2022/07/07 10:22:29;;;;;;;9.55;1.83;;;18.20;99.90;;;;;;5014194;28;20049;-44
2022/07/07 10:24:55;;;;;;;8.32;2.60;;;18.70;99.90;;;;;;5011238;28;20182;-43
2022/07/07 10:27:23;;;;;;;8.07;2.50;;;18.80;99.90;;;;;;5014556;28;20079;-44
2022/07/07 10:29:49;;;;;;;7.07;1.83;;;18.60;99.90;;;;;;5015935;28;20504;-44
2022/07/07 10:32:28;;;;;;;7.10;2.15;;;18.60;99.90;;;;;;5011580;28;20057;-44
2022/07/07 10:34:57;;;;;;;12.45;2.85;;;18.70;99.90;;;;;;5013822;28;20049;-43
2022/07/07 10:37:27;;;;;;;11.68;2.88;;;18.70;99.90;;;;;;5016252;28;20623;-44
2022/07/07 10:39:55;;;;;;;9.93;2.35;;;18.80;99.90;;;;;;5018192;28;20360;-46
2022/07/07 10:42:46;;;;;;;15.55;3.17;;;18.80;99.90;;;;;;5013491;28;20050;-43
2022/07/07 10:45:14;;;;;;;10.63;2.90;;;18.70;99.90;;;;;;5014473;28;20055;-46
2022/07/07 10:47:40;;;;;;;8.65;2.53;;;18.50;99.90;;;;;;5011065;28;20084;-44
2022/07/07 10:50:26;;;;;;;9.13;2.38;;;18.50;99.90;;;;;;5016390;28;20514;-44
2022/07/07 10:52:53;;;;;;;12.95;2.65;;;18.90;99.90;;;;;;5000029;28;20050;-44
2022/07/07 10:55:18;;;;;;;17.60;4.47;;;18.90;99.90;;;;;;5021993;28;20049;-45
2022/07/07 10:57:47;;;;;;;20.00;4.38;;;18.80;99.90;;;;;;5021980;28;20062;-44
2022/07/07 11:00:15;;;;;;;15.20;3.60;;;18.40;99.90;;;;;;5021012;28;20585;-45
2022/07/07 11:03:06;;;;;;;15.43;3.83;;;18.30;99.90;;;;;;5011497;28;20057;-43
2022/07/07 11:05:33;;;;;;;12.55;3.28;;;18.20;99.90;;;;;;4990647;28;20049;-43
2022/07/07 11:07:59;;;;;;;17.42;3.30;;;18.20;99.90;;;;;;5013514;28;20042;-46
2022/07/07 11:10:40;;;;;;;10.40;2.72;;;18.40;99.90;;;;;;5012125;28;20514;-44
2022/07/07 11:13:38;;;;;;;12.35;2.63;;;18.70;99.90;;;;;;5012125;28;20084;-46
2022/07/07 11:16:39;;;;;;;14.43;2.55;;;18.90;99.90;;;;;;5013162;28;20049;-44
2022/07/07 11:19:06;;;;;;;13.32;2.92;;;18.90;99.90;;;;;;4960972;28;20062;-43
2022/07/07 11:21:35;;;;;;;12.13;3.30;;;19.10;99.90;;;;;;4955685;28;20058;-45
2022/07/07 11:24:02;;;;;;;14.77;3.03;;;19.20;99.90;;;;;;4959716;28;20054;-51
2022/07/07 11:26:28;;;;;;;13.40;2.97;;;19.30;99.90;;;;;;4935175;28;20062;-45
2022/07/07 11:28:58;;;;;;;10.07;3.25;;;19.60;99.90;;;;;;4956045;28;20055;-45
2022/07/07 11:31:26;;;;;;;14.38;2.72;;;19.60;99.90;;;;;;4955018;28;20046;-44
2022/07/07 11:33:54;;;;;;;10.18;2.85;;;19.70;99.90;;;;;;4923483;28;20147;-45
2022/07/07 11:36:23;;;;;;;11.25;3.08;;;19.70;99.90;;;;;;4936656;28;20149;-45
2022/07/07 11:38:53;;;;;;;10.93;2.75;;;19.70;99.90;;;;;;4938053;28;20058;-45
2022/07/07 11:41:19;;;;;;;10.30;2.80;;;19.60;99.90;;;;;;4950146;28;20059;-45
2022/07/07 11:43:53;;;;;;;12.50;2.50;;;19.70;99.90;;;;;;4930418;28;20153;-44
2022/07/07 11:46:25;;;;;;;9.90;2.55;;;19.80;99.90;;;;;;4949902;28;20454;-44
2022/07/07 11:48:52;;;;;;;7.28;1.92;;;19.80;99.90;;;;;;4939281;28;20433;-45
2022/07/07 11:51:28;;;;;;;9.73;2.42;;;19.90;99.90;;;;;;4952771;28;20105;-46
2022/07/07 11:53:59;;;;;;;13.95;2.50;;;19.60;99.90;;;;;;4965969;28;20125;-46
2022/07/07 11:56:32;;;;;;;9.10;2.50;;;19.90;99.90;;;;;;5012006;28;20095;-46
2022/07/07 11:59:02;;;;;;;7.05;1.70;;;19.80;99.90;;;;;;5017190;28;20420;-45
2022/07/07 12:01:36;;;;;;;7.28;2.88;;;19.70;99.90;;;;;;5013236;28;20049;-45
2022/07/07 12:06:44;;;;;;;9.68;2.90;;;19.70;99.90;;;;;;5011698;28;20127;-45
2022/07/07 12:09:10;;;;;;;7.85;2.10;;;19.70;99.90;;;;;;5016012;28;20058;-46
2022/07/07 12:11:41;;;;;;;9.82;2.33;;;19.70;99.90;;;;;;5011507;28;20129;-45
2022/07/07 12:14:09;;;;;;;12.13;2.50;;;19.80;99.90;;;;;;5013696;28;20034;-45
2022/07/07 12:16:49;;;;;;;17.00;3.95;;;19.70;99.90;;;;;;4996170;28;20531;-46
2022/07/07 12:19:17;;;;;;;12.40;3.35;;;19.70;99.90;;;;;;4992844;28;20519;-44
2022/07/07 12:21:51;;;;;;;15.38;3.60;;;19.70;99.90;;;;;;5015386;28;20099;-43
2022/07/07 12:24:20;;;;;;;11.43;2.65;;;19.60;99.90;;;;;;5017255;28;20072;-45
2022/07/07 12:26:51;;;;;;;12.80;3.05;;;19.60;99.90;;;;;;5014727;28;20045;-44
2022/07/07 12:29:21;;;;;;;12.70;3.35;;;19.60;99.90;;;;;;5011635;28;20471;-44
2022/07/07 12:31:48;;;;;;;16.60;3.78;;;19.50;99.90;;;;;;5013695;28;20053;-45
2022/07/07 12:34:16;;;;;;;12.75;3.58;;;19.40;99.90;;;;;;5015873;28;20108;-44
2022/07/07 12:36:47;;;;;;;20.65;4.03;;;19.10;99.90;;;;;;4992885;28;20064;-45
2022/07/07 12:39:14;;;;;;;15.25;3.80;;;18.80;99.90;;;;;;5014760;28;20058;-44
2022/07/07 12:41:41;;;;;;;9.57;3.08;;;18.70;99.90;;;;;;4994627;28;20618;-45
2022/07/07 12:44:21;;;;;;;12.35;3.75;;;18.80;99.90;;;;;;5015778;28;20245;-45
2022/07/07 12:46:47;;;;;;;14.50;3.78;;;18.70;99.90;;;;;;5014655;28;20537;-49
2022/07/07 12:49:13;;;;;;;17.05;3.88;;;18.70;99.90;;;;;;5010867;28;20272;-48
2022/07/07 12:51:42;;;;;;;12.60;4.03;;;18.70;99.90;;;;;;5013094;28;20772;-44